Time;durP1;ratioP1;P1;durP2;ratioP2;P2;SDS_P1;SDS_P2;PMS_P1;PMS_P2;Temp;Humidity;BMP_temperature;BMP_pressure;BME280_temperature;BME280_humidity;BME280_pressure;Samples;Min_cycle;Max_cycle;Signal;HPM_P1;HPM_P2
2021/12/31 00:01:03;;;;;;;0.25;0.25;;;;;;;13.04;84.96;101373.28;5126884;28;20061;-81
2021/12/31 00:03:38;;;;;;;0.30;0.30;;;;;;;12.97;84.42;101366.44;5139254;28;20821;-82
2021/12/31 00:06:09;;;;;;;1.13;1.00;;;;;;;13.02;84.29;101366.28;5146205;28;20038;-81
2021/12/31 00:08:40;;;;;;;0.40;0.40;;;;;;;12.99;84.29;101359.34;5111373;28;20823;-81
2021/12/31 00:11:11;;;;;;;2.05;1.50;;;;;;;12.98;83.98;101360.25;5114619;28;20118;-82
2021/12/31 00:13:45;;;;;;;0.32;0.32;;;;;;;12.98;84.18;101364.66;5143971;28;20138;-82
2021/12/31 00:16:17;;;;;;;0.38;0.38;;;;;;;13.02;84.06;101371.56;5139268;28;20119;-82
2021/12/31 00:18:53;;;;;;;0.30;0.30;;;;;;;13.00;83.25;101362.84;5132991;28;20090;-82
2021/12/31 00:21:32;;;;;;;0.60;0.60;;;;;;;12.99;83.15;101364.63;5126979;28;20599;-81
2021/12/31 00:24:03;;;;;;;0.70;0.70;;;;;;;13.03;82.64;101361.00;5099732;28;20069;-81
2021/12/31 00:26:34;;;;;;;0.30;0.30;;;;;;;13.01;82.46;101361.97;5120955;28;20058;-82
2021/12/31 00:29:07;;;;;;;0.50;0.50;;;;;;;12.99;82.45;101359.34;5132707;28;20676;-82
2021/12/31 00:31:40;;;;;;;0.43;0.43;;;;;;;13.01;82.50;101361.97;5149826;28;20129;-81
2021/12/31 00:34:11;;;;;;;0.90;0.90;;;;;;;12.99;82.05;101355.84;5106489;28;20058;-81
2021/12/31 00:36:45;;;;;;;12.95;1.85;;;;;;;12.99;82.11;101359.34;5111474;28;20046;-82
2021/12/31 00:39:21;;;;;;;0.55;0.52;;;;;;;13.02;81.80;101347.84;5118310;28;20109;-81
2021/12/31 00:41:54;;;;;;;2.28;0.93;;;;;;;13.01;81.81;101348.78;5129141;28;20057;-81
2021/12/31 00:44:34;;;;;;;0.63;0.63;;;;;;;13.04;82.06;101348.69;5123250;29;20045;-81
2021/12/31 00:47:10;;;;;;;0.68;0.68;;;;;;;13.00;81.70;101349.69;5124892;28;20081;-82
2021/12/31 00:49:40;;;;;;;0.82;0.82;;;;;;;13.00;81.26;101350.53;5113267;28;20243;-81
2021/12/31 00:52:34;;;;;;;3.10;1.10;;;;;;;12.99;81.64;101342.69;5134925;28;20042;-81
2021/12/31 00:55:11;;;;;;;0.40;0.40;;;;;;;13.00;81.64;101342.63;5111167;28;20050;-81
2021/12/31 00:57:42;;;;;;;1.80;1.70;;;;;;;13.01;81.44;101349.63;5115854;28;20031;-82
2021/12/31 01:00:47;;;;;;;3.45;1.95;;;;;;;13.04;81.66;101346.94;5098688;29;20517;-82
2021/12/31 01:03:50;;;;;;;0.40;0.40;;;;;;;13.01;82.04;101349.63;5103809;28;20117;-81
2021/12/31 01:06:26;;;;;;;0.40;0.40;;;;;;;13.02;81.16;101354.00;5137929;28;20073;-81
2021/12/31 01:08:59;;;;;;;1.15;0.95;;;;;;;13.02;81.52;101355.75;5120729;28;20146;-81
2021/12/31 01:11:29;;;;;;;0.40;0.40;;;;;;;13.07;81.44;101356.50;5143878;28;20549;-82
2021/12/31 01:14:31;;;;;;;2.40;1.17;;;;;;;13.01;81.53;101351.41;5126954;28;20047;-81
2021/12/31 01:17:11;;;;;;;0.95;0.95;;;;;;;13.02;81.11;101351.38;5129178;28;20038;-81
2021/12/31 01:19:46;;;;;;;0.50;0.50;;;;;;;13.05;81.30;101355.69;5134471;28;20122;-82
2021/12/31 01:22:23;;;;;;;0.30;0.30;;;;;;;13.06;81.46;101357.41;5140800;28;20042;-81
2021/12/31 01:24:53;;;;;;;0.40;0.40;;;;;;;13.07;81.66;101357.38;5106228;28;20054;-82
2021/12/31 01:27:27;;;;;;;0.70;0.70;;;;;;;13.05;81.06;101358.31;5137119;28;20026;-82
2021/12/31 01:30:01;;;;;;;0.30;0.30;;;;;;;13.13;81.04;101351.06;5115768;28;20107;-82
2021/12/31 01:32:31;;;;;;;0.50;0.50;;;;;;;13.15;81.02;101353.66;5145996;28;20037;-81
2021/12/31 01:35:03;;;;;;;0.82;0.77;;;;;;;13.13;80.84;101358.97;5139338;28;20110;-82
2021/12/31 01:37:34;;;;;;;0.50;0.50;;;;;;;13.11;80.89;101362.56;5149356;28;20093;-82
2021/12/31 01:40:08;;;;;;;0.32;0.32;;;;;;;13.05;80.30;101359.19;5108498;28;20054;-81
2021/12/31 01:42:39;;;;;;;0.40;0.40;;;;;;;13.09;80.64;101349.44;5144554;28;20070;-82
2021/12/31 01:45:15;;;;;;;1.00;1.00;;;;;;;13.11;80.64;101358.13;5123771;28;20043;-81
2021/12/31 01:47:58;;;;;;;0.40;0.40;;;;;;;13.09;79.84;101359.97;5143333;28;20041;-81
2021/12/31 01:50:32;;;;;;;;;;;;;;;13.08;80.08;101350.34;5148578;28;20581;-81
2021/12/31 01:53:15;;;;;;;0.30;0.30;;;;;;;13.09;80.46;101353.81;5150211;28;19924;-82
2021/12/31 01:55:45;;;;;;;0.40;0.40;;;;;;;13.07;80.47;101346.81;5123330;28;20049;-81
2021/12/31 01:58:22;;;;;;;3.50;1.27;;;;;;;13.12;80.24;101357.25;5148020;28;20026;-81
2021/12/31 02:00:54;;;;;;;0.57;0.57;;;;;;;13.11;79.70;101355.50;5128783;28;20113;-82
2021/12/31 02:03:25;;;;;;;0.52;0.52;;;;;;;13.10;79.84;101360.84;5125245;28;20034;-81
2021/12/31 02:05:58;;;;;;;1.02;0.95;;;;;;;13.08;80.52;101360.88;5150220;28;20575;-81
2021/12/31 02:08:33;;;;;;;0.45;0.45;;;;;;;13.13;80.05;101353.69;5149736;28;20030;-81
2021/12/31 02:11:08;;;;;;;0.75;0.60;;;;;;;13.11;79.49;101352.03;5133800;28;20041;-81
2021/12/31 02:13:48;;;;;;;0.30;0.30;;;;;;;13.09;79.84;101348.56;5105193;28;20056;-82
2021/12/31 02:16:21;;;;;;;0.47;0.47;;;;;;;13.08;79.14;101350.34;5133560;28;20035;-81
2021/12/31 02:18:52;;;;;;;0.30;0.30;;;;;;;13.09;78.70;101354.72;5142764;28;20043;-81
2021/12/31 02:21:23;;;;;;;0.25;0.25;;;;;;;13.13;78.08;101350.22;5152829;28;20043;-81
2021/12/31 02:24:01;;;;;;;0.30;0.30;;;;;;;13.12;78.29;101345.84;5111501;28;20039;-81
2021/12/31 02:26:42;;;;;;;0.30;0.30;;;;;;;13.20;77.82;101352.63;5116097;28;20187;-82
2021/12/31 02:29:24;;;;;;;0.40;0.40;;;;;;;13.14;78.10;101347.53;5121395;28;20038;-82
2021/12/31 02:31:55;;;;;;;1.10;0.90;;;;;;;13.13;78.02;101348.44;5148054;28;20557;-82
2021/12/31 02:34:28;;;;;;;0.30;0.30;;;;;;;13.13;78.49;101353.69;5132646;28;20062;-81
2021/12/31 02:36:59;;;;;;;0.40;0.40;;;;;;;13.17;77.90;101355.38;5135202;28;20038;-81
2021/12/31 02:39:38;;;;;;;0.30;0.30;;;;;;;13.16;77.96;101356.25;5134389;28;20050;-81
2021/12/31 02:42:10;;;;;;;0.68;0.68;;;;;;;13.18;77.72;101359.69;5114560;28;20042;-81
2021/12/31 02:44:42;;;;;;;3.63;1.25;;;;;;;13.17;78.08;101358.00;5120036;28;20405;-82
2021/12/31 02:47:15;;;;;;;0.30;0.30;;;;;;;13.16;78.24;101345.72;5117878;28;20038;-82
2021/12/31 02:49:48;;;;;;;0.60;0.60;;;;;;;13.16;78.42;101345.72;5103785;28;20043;-82
2021/12/31 02:52:20;;;;;;;0.40;0.40;;;;;;;13.15;78.18;101351.91;5124724;28;20068;-82
2021/12/31 02:54:57;;;;;;;0.65;0.60;;;;;;;13.21;78.32;101351.72;5135250;28;20045;-82
2021/12/31 02:57:28;;;;;;;0.73;0.73;;;;;;;13.20;77.89;101349.97;5122069;28;20030;-82
2021/12/31 03:00:08;;;;;;;0.40;0.40;;;;;;;13.19;77.61;101342.97;5115226;28;20145;-82
2021/12/31 03:02:43;;;;;;;0.70;0.70;;;;;;;13.17;78.19;101342.19;5108294;28;20034;-82
2021/12/31 03:05:17;;;;;;;0.70;0.70;;;;;;;13.19;77.75;101342.97;5119620;28;20498;-81
2021/12/31 03:08:04;;;;;;;;;;;;;;;;;;;;;
2021/12/31 03:10:40;;;;;;;0.38;0.38;;;;;;;13.14;78.40;101347.53;5150362;28;20053;-82
2021/12/31 03:13:17;;;;;;;0.47;0.47;;;;;;;13.15;78.34;101345.75;5118692;28;20031;-81
2021/12/31 03:15:56;;;;;;;0.38;0.38;;;;;;;13.17;78.11;101347.47;5088128;28;20038;-81
2021/12/31 03:18:28;;;;;;;0.50;0.50;;;;;;;13.15;78.20;101351.91;5111539;28;20027;-81
2021/12/31 03:21:06;;;;;;;0.40;0.40;;;;;;;13.15;78.02;101349.25;5145028;28;20154;-82
2021/12/31 03:23:37;;;;;;;0.50;0.50;;;;;;;13.13;78.44;101345.78;5133720;28;20048;-82
2021/12/31 03:26:10;;;;;;;0.30;0.30;;;;;;;13.16;78.39;101352.75;5143301;28;20023;-82
2021/12/31 03:28:51;;;;;;;;;;;;;;;;;;;;;
2021/12/31 03:31:21;;;;;;;0.30;0.30;;;;;;;13.17;78.59;101341.31;5131188;28;20129;-82
2021/12/31 03:33:52;;;;;;;0.55;0.55;;;;;;;13.16;78.76;101334.31;5109435;28;20126;-82
2021/12/31 03:36:25;;;;;;;0.30;0.30;;;;;;;13.22;78.28;101332.38;5146604;28;20023;-81
2021/12/31 03:39:06;;;;;;;0.22;0.22;;;;;;;13.22;79.12;101321.81;5122748;28;20046;-82
2021/12/31 03:41:43;;;;;;;0.40;0.40;;;;;;;13.23;78.39;101327.94;5134731;28;20041;-82
2021/12/31 03:44:34;;;;;;;0.30;0.30;;;;;;;13.23;78.96;101320.94;5128082;28;20038;-81
2021/12/31 03:47:07;;;;;;;1.65;1.00;;;;;;;13.25;79.09;101322.66;5109953;28;20039;-82
2021/12/31 03:49:38;;;;;;;0.40;0.40;;;;;;;13.27;78.90;101315.53;5121149;28;20129;-81
2021/12/31 03:52:18;;;;;;;0.30;0.30;;;;;;;13.23;79.16;101310.38;5116215;28;20075;-81
2021/12/31 03:54:49;;;;;;;0.70;0.70;;;;;;;13.29;79.51;101305.84;5122331;28;20129;-81
2021/12/31 03:57:20;;;;;;;0.40;0.40;;;;;;;13.36;78.95;101310.00;5138887;28;20089;-82
2021/12/31 03:59:51;;;;;;;0.30;0.30;;;;;;;13.33;79.13;101307.50;5122645;28;20039;-81
2021/12/31 04:02:22;;;;;;;0.38;0.38;;;;;;;13.25;79.10;101310.34;5138259;28;20046;-82
2021/12/31 04:05:03;;;;;;;1.40;1.33;;;;;;;13.26;79.68;101303.31;5104421;28;20051;-81
2021/12/31 04:07:33;;;;;;;0.40;0.40;;;;;;;13.29;79.08;101304.06;5136776;28;20906;-81
2021/12/31 04:10:04;;;;;;;0.65;0.65;;;;;;;13.31;79.29;101309.28;5119570;28;20042;-81
2021/12/31 04:12:46;;;;;;;0.60;0.60;;;;;;;13.31;80.17;101310.16;5136444;28;20039;-81
2021/12/31 04:15:19;;;;;;;0.40;0.40;;;;;;;13.33;80.65;101310.97;5113341;28;20049;-82
2021/12/31 04:17:50;;;;;;;1.15;1.15;;;;;;;13.37;79.83;101307.34;5135629;28;20498;-81
2021/12/31 04:20:35;;;;;;;0.38;0.38;;;;;;;13.29;79.60;101308.47;5121623;28;20149;-81
2021/12/31 04:23:27;;;;;;;0.95;0.95;;;;;;;13.26;80.02;101305.94;5126610;28;20182;-82
2021/12/31 04:25:59;;;;;;;0.30;0.30;;;;;;;13.41;80.30;101305.53;5140878;28;20465;-82
2021/12/31 04:28:29;;;;;;;0.75;0.75;;;;;;;13.41;80.28;101313.44;5126151;28;20563;-81
2021/12/31 04:31:04;;;;;;;0.40;0.40;;;;;;;13.35;79.69;101316.19;5128323;28;20022;-81
2021/12/31 04:33:45;;;;;;;0.82;0.82;;;;;;;13.29;79.20;101308.47;5120914;28;20042;-82
2021/12/31 04:36:18;;;;;;;0.40;0.40;;;;;;;13.33;80.07;101307.50;5115135;28;20026;-81
2021/12/31 04:38:54;;;;;;;0.57;0.57;;;;;;;13.34;79.96;101303.94;5128606;28;20113;-81
2021/12/31 04:41:25;;;;;;;0.65;0.65;;;;;;;13.39;80.11;101312.59;5118639;28;20053;-81
2021/12/31 04:44:01;;;;;;;0.70;0.70;;;;;;;13.44;80.38;101312.47;5110630;28;20185;-82
2021/12/31 04:46:34;;;;;;;0.40;0.40;;;;;;;13.26;78.50;101314.69;5142946;28;20038;-82
2021/12/31 04:49:07;;;;;;;0.40;0.40;;;;;;;13.26;78.92;101309.44;5111908;28;20043;-81
2021/12/31 04:51:38;;;;;;;0.50;0.50;;;;;;;13.13;78.63;101303.66;5138043;28;20096;-81
2021/12/31 04:54:14;;;;;;;0.45;0.45;;;;;;;13.22;78.92;101302.53;5108126;28;20110;-81
2021/12/31 04:56:54;;;;;;;0.40;0.40;;;;;;;13.17;78.21;101300.03;5150517;28;20449;-81
2021/12/31 04:59:25;;;;;;;0.60;0.60;;;;;;;13.19;78.84;101298.19;5110321;28;20057;-82
2021/12/31 05:01:58;;;;;;;0.20;0.20;;;;;;;13.16;79.29;101298.28;5142322;28;20031;-82
2021/12/31 05:04:38;;;;;;;0.30;0.30;;;;;;;13.12;78.93;101301.06;5124601;28;20031;-82
2021/12/31 05:07:09;;;;;;;0.40;0.40;;;;;;;13.13;78.46;101303.66;5151185;28;20090;-82
2021/12/31 05:09:45;;;;;;;0.30;0.30;;;;;;;13.12;77.99;101304.53;5110333;28;20097;-81
2021/12/31 05:12:25;;;;;;;0.70;0.70;;;;;;;13.10;78.98;101305.50;5139324;28;20114;-82
2021/12/31 05:15:00;;;;;;;0.40;0.40;;;;;;;13.17;78.08;101320.22;5124260;28;20105;-82
2021/12/31 05:17:31;;;;;;;0.50;0.50;;;;;;;13.05;77.92;101327.59;5126121;28;20031;-82
2021/12/31 05:20:10;;;;;;;0.35;0.35;;;;;;;13.06;78.07;101317.91;5130880;28;20102;-82
2021/12/31 05:22:47;;;;;;;0.73;0.73;;;;;;;13.07;78.58;101317.00;5126872;28;20078;-81
2021/12/31 05:25:21;;;;;;;;;;;;;;;13.06;78.71;101307.38;5114408;28;20047;-82
2021/12/31 05:27:54;;;;;;;0.50;0.50;;;;;;;13.06;78.83;101307.38;5142846;28;19920;-81
2021/12/31 05:30:25;;;;;;;1.95;0.50;;;;;;;13.01;78.26;101304.00;5142558;28;20066;-82
2021/12/31 05:33:01;;;;;;;0.70;0.70;;;;;;;12.98;78.33;101315.47;5136989;28;20031;-82
2021/12/31 05:35:32;;;;;;;0.50;0.50;;;;;;;12.94;78.01;101312.97;5119665;28;20050;-81
2021/12/31 05:38:08;;;;;;;0.50;0.50;;;;;;;13.01;78.13;101310.13;5108331;29;20028;-81
2021/12/31 05:40:41;;;;;;;0.63;0.63;;;;;;;13.03;78.98;101307.44;5126347;28;20047;-81
2021/12/31 05:43:11;;;;;;;0.47;0.47;;;;;;;12.98;78.09;101309.34;5125635;28;20744;-82
2021/12/31 05:45:42;;;;;;;0.40;0.40;;;;;;;12.95;78.44;101305.03;5149614;28;20043;-81
2021/12/31 05:48:15;;;;;;;0.52;0.52;;;;;;;12.98;78.84;101309.34;5109635;28;20035;-81
2021/12/31 05:50:48;;;;;;;0.50;0.50;;;;;;;13.05;79.18;101300.38;5121248;28;20042;-81
2021/12/31 05:53:38;;;;;;;1.75;0.82;;;;;;;13.06;78.22;101296.81;5108350;28;20051;-81
2021/12/31 05:56:09;;;;;;;0.32;0.32;;;;;;;13.05;77.93;101292.47;5146657;28;20458;-81
2021/12/31 05:58:43;;;;;;;4.47;1.85;;;;;;;13.02;78.07;101280.25;5106991;28;20042;-82
2021/12/31 06:01:13;;;;;;;0.75;0.75;;;;;;;13.11;78.95;101281.75;5134864;28;20089;-82
2021/12/31 06:03:53;;;;;;;0.30;0.30;;;;;;;13.11;79.24;101283.53;5114259;28;20684;-82
2021/12/31 06:06:31;;;;;;;0.52;0.52;;;;;;;13.07;78.84;101298.56;5111616;28;20073;-82
2021/12/31 06:09:25;;;;;;;0.30;0.30;;;;;;;13.11;78.19;101294.91;5127868;28;20687;-82
2021/12/31 06:11:59;;;;;;;0.30;0.30;;;;;;;13.02;78.89;101296.06;5148848;28;20046;-81
2021/12/31 06:14:30;;;;;;;0.75;0.60;;;;;;;12.97;78.08;101297.97;5137677;28;20054;-82
2021/12/31 06:17:06;;;;;;;0.47;0.47;;;;;;;13.02;78.26;101295.16;5141315;28;20033;-81
2021/12/31 06:19:40;;;;;;;0.77;0.77;;;;;;;13.06;79.15;101302.94;5151631;28;20082;-82
2021/12/31 06:22:11;;;;;;;0.32;0.32;;;;;;;13.07;79.17;101306.47;5130608;28;20050;-82
2021/12/31 06:25:12;;;;;;;8.90;1.77;;;;;;;12.86;77.74;101295.59;5143383;28;20101;-82
2021/12/31 06:27:48;;;;;;;0.30;0.30;;;;;;;12.83;77.46;101294.81;5141103;28;20121;-82
2021/12/31 06:30:21;;;;;;;0.30;0.30;;;;;;;12.77;77.52;101302.91;5132749;28;20043;-82
2021/12/31 06:32:52;;;;;;;0.40;0.40;;;;;;;12.67;77.41;101304.91;5144767;28;20027;-82
2021/12/31 06:35:25;;;;;;;0.40;0.40;;;;;;;12.77;78.69;101300.25;5121225;28;20042;-82
2021/12/31 06:38:01;;;;;;;0.30;0.30;;;;;;;12.94;77.94;101302.41;5144289;28;20031;-81
2021/12/31 06:40:56;;;;;;;0.30;0.30;;;;;;;12.99;78.99;101305.81;5130278;28;20766;-82
2021/12/31 06:43:43;;;;;;;0.30;0.30;;;;;;;12.78;77.67;101297.56;5130579;28;20027;-83
2021/12/31 06:46:26;;;;;;;;;;;;;;;;;;;;;
2021/12/31 06:49:46;;;;;;;0.30;0.30;;;;;;;12.80;77.64;101305.47;5119552;28;20041;-84
2021/12/31 06:52:23;;;;;;;0.40;0.40;;;;;;;12.82;78.36;101288.69;5134969;28;20047;-83
2021/12/31 06:55:24;;;;;;;0.50;0.50;;;;;;;12.93;78.90;101282.28;5100853;28;20064;-84
2021/12/31 06:58:39;;;;;;;;;;;;;;;;;;;;;
2021/12/31 07:01:24;;;;;;;0.47;0.47;;;;;;;12.88;79.45;101291.16;5124901;28;20050;-83
2021/12/31 07:08:39;;;;;;;0.52;0.52;;;;;;;12.88;79.12;101295.56;5117365;28;20073;-83
2021/12/31 07:11:31;;;;;;;2.92;2.60;;;;;;;12.87;79.13;101297.34;5098472;28;20104;-83
2021/12/31 07:14:43;;;;;;;0.40;0.40;;;;;;;12.82;78.96;101293.97;5106693;28;20035;-83
2021/12/31 07:17:47;;;;;;;0.80;0.80;;;;;;;12.89;79.21;101299.94;5141260;28;20030;-83
2021/12/31 07:20:26;;;;;;;;;;;;;;;12.85;79.18;101309.66;5112603;28;20078;-83
2021/12/31 07:23:32;;;;;;;0.40;0.40;;;;;;;12.93;78.85;101300.72;5127514;28;19977;-83
2021/12/31 07:26:43;;;;;;;0.35;0.35;;;;;;;12.69;78.61;101297.81;5059166;29;20534;-83
2021/12/31 07:29:13;;;;;;;0.30;0.30;;;;;;;12.60;78.35;101297.16;5060127;29;20055;-84
2021/12/31 07:32:34;;;;;;;;;;;;;;;;;;;;;
2021/12/31 07:38:31;;;;;;;0.50;0.50;;;;;;;12.39;78.08;101305.63;5124147;28;20054;-83
2021/12/31 07:41:02;;;;;;;0.30;0.30;;;;;;;12.37;77.78;101294.25;5096448;28;20034;-82
2021/12/31 07:43:33;;;;;;;0.32;0.32;;;;;;;12.56;78.38;101298.16;5126942;28;20115;-83
2021/12/31 07:46:03;;;;;;;0.30;0.30;;;;;;;12.53;78.03;101290.34;5148744;28;20066;-83
2021/12/31 07:48:34;;;;;;;0.60;0.60;;;;;;;12.56;78.42;101294.69;5143027;28;20038;-83
2021/12/31 07:51:04;;;;;;;0.63;0.63;;;;;;;12.55;77.97;101295.59;5128871;28;20031;-83
2021/12/31 07:57:14;;;;;;;0.40;0.40;;;;;;;12.52;78.50;101301.75;5117456;28;20046;-82
2021/12/31 07:59:44;;;;;;;0.40;0.40;;;;;;;12.52;78.33;101299.13;5112685;29;20035;-83
2021/12/31 08:02:15;;;;;;;1.30;1.20;;;;;;;12.58;78.75;101306.88;5138550;28;20054;-83
2021/12/31 08:04:45;;;;;;;0.35;0.35;;;;;;;12.64;78.57;101307.63;5128700;28;20043;-83
2021/12/31 08:07:16;;;;;;;0.82;0.70;;;;;;;12.60;78.72;101317.38;5140236;28;20137;-83
2021/12/31 08:09:46;;;;;;;0.50;0.50;;;;;;;12.57;77.92;101312.16;5130883;28;20035;-83
2021/12/31 08:12:17;;;;;;;0.40;0.40;;;;;;;12.69;78.94;101318.88;5122649;28;20049;-83
2021/12/31 08:14:47;;;;;;;0.50;0.50;;;;;;;12.52;78.72;101322.81;5103106;29;20042;-82
2021/12/31 08:17:18;;;;;;;0.40;0.40;;;;;;;12.54;78.71;101323.66;5144658;28;20035;-82
2021/12/31 08:19:48;;;;;;;0.40;0.40;;;;;;;12.46;78.36;101320.34;5124603;28;20050;-82
2021/12/31 08:22:21;;;;;;;0.52;0.52;;;;;;;12.57;78.74;101313.06;5117922;28;20031;-82
2021/12/31 08:24:57;;;;;;;0.40;0.40;;;;;;;12.48;77.92;101320.34;5125555;28;20119;-82
2021/12/31 08:27:35;;;;;;;0.38;0.38;;;;;;;12.52;78.56;101316.69;5086655;29;20039;-82
2021/12/31 08:30:07;;;;;;;0.45;0.45;;;;;;;12.38;77.91;101324.94;5128143;28;20031;-82
2021/12/31 08:32:38;;;;;;;0.30;0.30;;;;;;;12.44;78.19;101320.41;5104887;29;20637;-82
2021/12/31 08:35:09;;;;;;;0.40;0.40;;;;;;;12.27;77.58;101318.16;5137601;28;20424;-82
2021/12/31 08:37:39;;;;;;;0.30;0.30;;;;;;;12.40;77.65;101312.63;5124425;28;20035;-82
2021/12/31 08:40:11;;;;;;;0.30;0.30;;;;;;;12.41;78.34;101303.81;5123705;28;20126;-82
2021/12/31 08:42:41;;;;;;;0.63;0.63;;;;;;;12.38;78.30;101309.16;5096446;29;20039;-83
2021/12/31 08:45:12;;;;;;;1.30;1.00;;;;;;;12.43;78.18;101304.66;5124157;28;20130;-83
2021/12/31 08:47:43;;;;;;;0.30;0.30;;;;;;;12.44;78.09;101324.78;5128614;28;20473;-83
2021/12/31 08:50:14;;;;;;;0.30;0.30;;;;;;;12.41;77.83;101315.19;5113323;28;20046;-82
2021/12/31 08:52:45;;;;;;;2.35;0.88;;;;;;;12.49;76.82;101319.41;5138296;28;20042;-83
2021/12/31 08:55:25;;;;;;;0.63;0.63;;;;;;;12.43;77.50;101323.06;5112480;28;20431;-83
2021/12/31 08:58:33;;;;;;;0.50;0.50;;;;;;;12.37;78.03;101323.22;5114758;28;20061;-82
2021/12/31 09:01:03;;;;;;;0.30;0.30;;;;;;;12.41;77.93;101316.97;5103984;29;20058;-82
2021/12/31 09:03:34;;;;;;;0.35;0.35;;;;;;;12.36;77.23;101322.34;5093953;28;20059;-82
2021/12/31 09:06:06;;;;;;;0.45;0.45;;;;;;;12.29;77.75;101320.78;5122148;29;20517;-82
2021/12/31 09:09:17;;;;;;;0.50;0.50;;;;;;;12.36;77.61;101321.47;5110993;28;20047;-82
2021/12/31 09:11:48;;;;;;;0.30;0.30;;;;;;;12.37;77.45;101315.31;5118168;28;20061;-83
2021/12/31 09:14:19;;;;;;;0.30;0.30;;;;;;;12.37;77.29;101328.47;5120437;29;20175;-83
2021/12/31 09:16:50;;;;;;;0.30;0.30;;;;;;;12.28;77.26;101329.56;5122671;28;20062;-83
2021/12/31 09:19:21;;;;;;;0.30;0.30;;;;;;;12.33;78.35;101322.41;5147259;28;20113;-83
2021/12/31 09:21:51;;;;;;;2.22;1.10;;;;;;;12.36;78.18;101321.47;5137673;28;20094;-83
2021/12/31 09:24:23;;;;;;;0.30;0.30;;;;;;;12.43;78.35;101320.44;5117593;28;20047;-82
2021/12/31 09:29:34;;;;;;;0.40;0.40;;;;;;;12.40;78.04;101312.63;5191648;23;20057;-83
2021/12/31 09:32:06;;;;;;;0.30;0.30;;;;;;;12.45;78.46;101310.72;5150818;28;20034;-83
2021/12/31 09:34:36;;;;;;;0.40;0.40;;;;;;;12.43;78.11;101312.56;5162068;28;20550;-84
2021/12/31 09:37:07;;;;;;;0.47;0.47;;;;;;;12.43;78.38;101317.81;5183752;28;20028;-82
2021/12/31 09:39:38;;;;;;;0.38;0.38;;;;;;;12.39;77.24;101311.75;5163064;28;20073;-84
2021/12/31 09:42:09;;;;;;;0.80;0.80;;;;;;;12.43;77.96;101325.72;5174912;28;20049;-83
2021/12/31 09:44:40;;;;;;;0.50;0.50;;;;;;;12.44;77.32;101320.41;5157223;28;20140;-83
2021/12/31 09:47:13;;;;;;;3.03;1.70;;;;;;;12.50;77.82;101327.28;5199752;28;20033;-83
2021/12/31 09:49:46;;;;;;;;;;;;;;;12.60;78.24;101331.38;5165775;28;20038;-84
2021/12/31 09:52:17;;;;;;;0.30;0.30;;;;;;;12.58;78.55;101321.81;5172563;28;20421;-83
2021/12/31 09:54:49;;;;;;;0.52;0.52;;;;;;;12.55;77.76;101322.75;5170537;28;20074;-82
2021/12/31 09:57:21;;;;;;;0.50;0.50;;;;;;;12.60;77.06;101315.59;5184156;28;20104;-82
2021/12/31 09:59:53;;;;;;;1.40;1.30;;;;;;;12.59;78.15;101326.16;5184960;28;20045;-81
2021/12/31 10:03:01;;;;;;;0.67;0.67;;;;;;;12.68;78.93;101333.84;5165496;28;20030;-82
2021/12/31 10:09:20;;;;;;;0.47;0.47;;;;;;;12.68;76.91;101330.34;5153534;28;20053;-82
2021/12/31 10:15:51;;;;;;;0.38;0.38;;;;;;;12.69;77.27;101343.47;5185071;28;20065;-82
2021/12/31 10:19:20;;;;;;;0.43;0.43;;;;;;;12.69;76.79;101339.94;5231923;23;20099;-83
2021/12/31 10:22:19;;;;;;;0.60;0.60;;;;;;;12.74;76.65;101348.59;5163817;28;20074;-83
2021/12/31 10:24:51;;;;;;;2.45;1.77;;;;;;;12.75;76.23;101339.81;5154954;28;20038;-82
2021/12/31 10:27:23;;;;;;;0.43;0.43;;;;;;;12.70;76.39;101336.41;5140012;28;20120;-82
2021/12/31 10:30:04;;;;;;;0.52;0.52;;;;;;;12.73;76.83;101342.47;5125852;28;20518;-82
2021/12/31 10:32:49;;;;;;;0.35;0.35;;;;;;;12.79;76.83;101351.97;5159444;23;20050;-84
2021/12/31 11:36:09;;;;;;;0.60;0.60;;;;;;;12.98;74.15;101285.63;5349436;23;20102;-83
2021/12/31 11:38:52;;;;;;;0.40;0.40;;;;;;;13.01;74.25;101283.78;5112813;28;20094;-82
2021/12/31 11:41:27;;;;;;;6.75;0.55;;;;;;;13.07;73.84;101272.22;5113239;29;20090;-82
2021/12/31 11:44:09;;;;;;;0.68;0.68;;;;;;;13.03;74.51;101275.81;5128961;28;20465;-82
2021/12/31 11:46:45;;;;;;;0.50;0.50;;;;;;;13.09;74.00;101270.41;5132482;28;20035;-82
2021/12/31 11:49:34;;;;;;;0.43;0.43;;;;;;;13.09;73.69;101264.25;5112595;28;20043;-82
2021/12/31 11:52:12;;;;;;;0.40;0.40;;;;;;;13.10;73.65;101269.47;5105265;28;20043;-82
2021/12/31 11:55:20;;;;;;;0.30;0.30;;;;;;;13.10;73.39;101279.16;5125413;28;20051;-82
2021/12/31 11:57:52;;;;;;;0.38;0.38;;;;;;;13.08;73.93;101287.13;5124393;29;20054;-82
2021/12/31 12:00:27;;;;;;;8.73;0.93;;;;;;;13.14;73.62;101286.94;5137561;28;20553;-82
2021/12/31 12:02:57;;;;;;;0.40;0.40;;;;;;;13.19;73.88;101271.84;5093545;28;20043;-83
2021/12/31 12:09:01;;;;;;;0.30;0.30;;;;;;;13.22;73.57;101271.75;5112741;28;20043;-82
2021/12/31 12:12:07;;;;;;;0.30;0.30;;;;;;;13.22;73.30;101255.94;5107247;28;20444;-81
2021/12/31 12:14:47;;;;;;;0.50;0.50;;;;;;;13.28;73.52;101259.31;5126552;28;20040;-81
2021/12/31 12:17:39;;;;;;;0.30;0.30;;;;;;;13.26;73.65;101250.59;5120356;23;20046;-83
2021/12/31 12:20:55;;;;;;;0.30;0.30;;;;;;;13.26;73.14;101250.59;5096852;28;20107;-83
2021/12/31 12:23:52;;;;;;;0.35;0.35;;;;;;;13.31;73.31;101246.03;5070722;28;20036;-83
2021/12/31 12:26:40;;;;;;;0.50;0.50;;;;;;;13.38;73.08;101266.03;5067234;29;20079;-83
2021/12/31 12:29:25;;;;;;;0.30;0.30;;;;;;;13.33;73.23;101267.97;5062172;29;20051;-83
2021/12/31 12:35:31;;;;;;;0.30;0.30;;;;;;;13.35;72.87;101260.84;5067513;29;20127;-84
2021/12/31 12:38:50;;;;;;;4.30;0.90;;;;;;;13.39;72.67;101259.88;5049143;29;20032;-84
2021/12/31 12:42:00;;;;;;;0.30;0.30;;;;;;;13.35;73.25;101235.38;5076786;29;20126;-84
2021/12/31 12:44:43;;;;;;;0.20;0.20;;;;;;;13.32;72.93;101232.81;5086546;29;20050;-84
2021/12/31 12:47:45;;;;;;;0.38;0.38;;;;;;;13.30;73.16;101225.88;5091487;29;20507;-83
2021/12/31 12:50:48;;;;;;;0.32;0.32;;;;;;;13.30;72.86;101234.66;5071700;29;20102;-84
2021/12/31 12:53:21;;;;;;;0.20;0.20;;;;;;;13.28;72.99;101217.13;5051634;29;20043;-83
2021/12/31 12:56:08;;;;;;;0.52;0.52;;;;;;;13.28;73.20;101219.78;5062182;29;20403;-84
2021/12/31 12:58:48;;;;;;;0.40;0.40;;;;;;;13.28;73.66;101223.28;5042675;29;20051;-83
2021/12/31 13:01:53;;;;;;;;;;;;;;;;;;;;;
2021/12/31 13:04:34;;;;;;;0.45;0.45;;;;;;;13.48;73.15;101216.56;5072420;29;20067;-84
2021/12/31 13:07:53;;;;;;;;;;;;;;;;;;;;;
2021/12/31 13:10:13;;;;;;;3.72;0.82;;;;;;;13.49;72.78;101216.53;5063085;29;20119;-84
2021/12/31 13:13:01;;;;;;;;;;;;;;;;;;;;;
2021/12/31 13:15:46;;;;;;;1.27;0.57;;;;;;;13.48;73.46;101198.09;5075990;29;20048;-83
2021/12/31 13:18:32;;;;;;;1.23;0.95;;;;;;;13.47;72.76;101197.25;5080084;29;20095;-83
2021/12/31 13:21:22;;;;;;;0.30;0.30;;;;;;;13.52;73.01;101200.59;5071803;29;20036;-83
2021/12/31 13:24:31;;;;;;;;;;;;;;;;;;;;;
2021/12/31 13:27:14;;;;;;;0.35;0.35;;;;;;;13.59;72.69;101195.16;5074299;29;20044;-84
2021/12/31 13:30:10;;;;;;;0.38;0.38;;;;;;;13.58;72.54;101196.06;5046646;29;20526;-84
2021/12/31 13:32:47;;;;;;;0.85;0.80;;;;;;;13.63;73.19;101204.66;5058639;29;20387;-84
2021/12/31 13:35:25;;;;;;;6.97;1.48;;;;;;;13.59;72.92;101203.06;5065248;29;20127;-83
2021/12/31 13:38:07;;;;;;;0.28;0.28;;;;;;;13.56;73.04;101208.41;5080749;29;20028;-82
2021/12/31 13:41:48;;;;;;;0.68;0.63;;;;;;;13.54;72.99;101225.13;5069864;29;20044;-84
2021/12/31 13:44:17;;;;;;;0.30;0.30;;;;;;;13.66;72.35;101217.78;5058399;29;20051;-84
2021/12/31 13:47:05;;;;;;;0.45;0.45;;;;;;;13.73;72.36;101224.56;5047731;29;20159;-84
2021/12/31 13:49:48;;;;;;;0.30;0.30;;;;;;;13.74;72.81;101221.03;5078943;29;20048;-84
2021/12/31 13:52:31;;;;;;;0.95;0.93;;;;;;;13.74;72.76;101234.19;5093356;29;20107;-84
2021/12/31 13:55:26;;;;;;;0.30;0.30;;;;;;;13.78;72.69;101243.72;5061102;29;20036;-84
2021/12/31 13:58:06;;;;;;;0.40;0.40;;;;;;;13.85;72.79;101241.75;5083880;29;20032;-84
2021/12/31 14:00:43;;;;;;;0.50;0.50;;;;;;;13.87;73.10;101242.59;5072188;29;20051;-84